Inlet, New York
Current Conditions -  °F | °C
As of 7:53 PM on Friday 24 Oct 2014 (Local Time) from KRME Reporting Station
Clear Clear  
Wind Chill: 41°   Ceiling: Unl
Heat Index: 45°   Visibility: 10mi
Dew Point: 40°   Wind: 7mph
Humidity: 82%   Direction: 300°WNW
Pressure: 29.91"   Gusts: NA
Location:  43.75°N, 74.79°W
Report Text: KRME 242353Z 30006KT 10SM CLR 07/04 A2991 RMK AO2 SLP129 T00720044 10161 20067 51014
Loading
Personal Weather Stations






























Interactive Weather Map
Tropical Storm Tracking
New forecast layout! Learn more

10-Day Weather Forecast

Advertisements
Track Severe Weather on mobile